Time;durP1;ratioP1;P1;durP2;ratioP2;P2;SDS_P1;SDS_P2;PMS_P1;PMS_P2;Temp;Humidity;BMP_temperature;BMP_pressure;BME280_temperature;BME280_humidity;BME280_pressure;Samples;Min_cycle;Max_cycle;Signal;HPM_P1;HPM_P2
2023/11/10 00:01:42;;;;;;;1.60;1.20;;;7.90;98.20;;;;;;4999419;28;20580;-86
2023/11/10 00:04:09;;;;;;;1.60;1.20;;;7.90;98.20;;;;;;5019602;28;20910;-86
2023/11/10 00:06:40;;;;;;;1.60;1.10;;;7.90;98.20;;;;;;5011070;28;20501;-85
2023/11/10 00:09:08;;;;;;;1.60;1.20;;;7.90;98.20;;;;;;5012372;28;20514;-85
2023/11/10 00:11:38;;;;;;;1.60;1.30;;;7.90;98.20;;;;;;5007390;28;20483;-86
2023/11/10 00:14:11;;;;;;;1.60;1.20;;;7.90;98.20;;;;;;5009763;28;20456;-85
2023/11/10 00:16:45;;;;;;;1.60;1.20;;;7.90;98.20;;;;;;4993752;28;20476;-84
2023/11/10 00:19:13;;;;;;;1.60;1.23;;;7.90;98.20;;;;;;5006118;28;20474;-84
2023/11/10 00:21:41;;;;;;;1.60;1.30;;;7.90;98.20;;;;;;4998626;28;20542;-84
2023/11/10 00:24:16;;;;;;;1.60;1.20;;;7.90;98.20;;;;;;5009320;28;20461;-85
2023/11/10 00:26:43;;;;;;;1.60;1.20;;;7.90;98.20;;;;;;4994633;28;21087;-84
2023/11/10 00:29:16;;;;;;;1.60;1.30;;;7.90;98.20;;;;;;5021753;28;20618;-86
2023/11/10 00:31:45;;;;;;;1.60;1.20;;;7.90;98.20;;;;;;5004052;28;20492;-86
2023/11/10 00:34:18;;;;;;;1.60;1.20;;;7.90;98.20;;;;;;5005190;28;20586;-86
2023/11/10 00:36:47;;;;;;;1.60;1.20;;;7.90;98.20;;;;;;5002606;28;20571;-86
2023/11/10 00:39:32;;;;;;;1.60;1.30;;;7.90;98.20;;;;;;5014305;28;20460;-86
2023/11/10 00:42:02;;;;;;;1.60;1.20;;;7.90;98.20;;;;;;4999556;28;20924;-87
2023/11/10 00:44:38;;;;;;;1.60;1.20;;;7.90;98.20;;;;;;5004983;28;20460;-86
2023/11/10 00:47:18;;;;;;;;;;;;;;;;;;;;;
2023/11/10 00:56:07;;;;;;;1.60;1.20;;;8.00;98.20;;;;;;5004340;28;21053;-87
2023/11/10 00:58:46;;;;;;;1.60;1.20;;;8.00;98.20;;;;;;5022706;28;20463;-87
2023/11/10 01:01:20;;;;;;;1.60;1.30;;;8.00;98.20;;;;;;4995679;28;20490;-86
2023/11/10 01:03:49;;;;;;;1.60;1.23;;;8.00;98.20;;;;;;5013984;28;20497;-87
2023/11/10 01:06:19;;;;;;;1.60;1.30;;;8.00;98.20;;;;;;5004685;28;20534;-86
2023/11/10 01:08:50;;;;;;;1.60;1.20;;;8.00;98.20;;;;;;5020980;28;20474;-85
2023/11/10 01:11:20;;;;;;;1.60;1.40;;;8.00;98.20;;;;;;5009857;28;20479;-87
2023/11/10 01:13:50;;;;;;;1.60;1.10;;;8.00;98.20;;;;;;5018522;28;20471;-89
2023/11/10 01:16:24;;;;;;;1.60;1.20;;;7.90;98.20;;;;;;4995881;28;20475;-87
2023/11/10 01:18:58;;;;;;;1.60;1.20;;;7.90;98.20;;;;;;5023948;28;20456;-87
2023/11/10 01:21:25;;;;;;;1.60;1.27;;;8.00;98.20;;;;;;5001632;28;20521;-86
2023/11/10 01:23:58;;;;;;;1.60;1.20;;;7.90;98.20;;;;;;5013507;28;20472;-85
2023/11/10 01:26:27;;;;;;;1.60;1.30;;;7.90;98.20;;;;;;5007637;28;20854;-85
2023/11/10 01:29:11;;;;;;;1.60;1.20;;;7.90;98.20;;;;;;5017404;28;20471;-85
2023/11/10 01:31:45;;;;;;;1.60;1.20;;;7.90;98.20;;;;;;5000689;28;20577;-86
2023/11/10 01:34:12;;;;;;;1.60;1.20;;;7.90;98.20;;;;;;5011222;28;20471;-86
2023/11/10 01:36:39;;;;;;;1.60;1.20;;;7.90;98.20;;;;;;5001784;28;20924;-84
2023/11/10 01:39:09;;;;;;;1.60;1.20;;;7.90;98.20;;;;;;5002517;28;20516;-86
2023/11/10 01:41:43;;;;;;;1.60;1.20;;;7.90;98.20;;;;;;4999214;28;20471;-88
2023/11/10 01:44:10;;;;;;;1.60;1.30;;;7.90;98.20;;;;;;5019834;28;20460;-86
2023/11/10 01:46:47;;;;;;;1.60;1.20;;;7.90;98.20;;;;;;5004079;28;20494;-81
2023/11/10 01:49:16;;;;;;;1.60;1.17;;;7.90;98.20;;;;;;5006060;28;20460;-80
2023/11/10 01:51:44;;;;;;;1.60;1.20;;;7.90;98.20;;;;;;4999478;28;20570;-84
2023/11/10 01:54:14;;;;;;;1.60;1.20;;;7.90;98.20;;;;;;5014428;28;20461;-84
2023/11/10 01:56:46;;;;;;;1.60;1.30;;;7.90;98.20;;;;;;5005402;28;20495;-85
2023/11/10 01:59:17;;;;;;;1.60;1.30;;;7.90;98.20;;;;;;5014286;28;20465;-86
2023/11/10 02:01:52;;;;;;;1.60;1.20;;;7.80;98.20;;;;;;5006908;28;20479;-87
2023/11/10 02:04:27;;;;;;;1.60;1.20;;;7.80;98.20;;;;;;5021533;28;20471;-86
2023/11/10 02:06:56;;;;;;;1.60;1.20;;;7.80;98.20;;;;;;4999022;28;20480;-86
2023/11/10 02:09:34;;;;;;;1.60;1.30;;;7.80;98.20;;;;;;5004927;28;20531;-86
2023/11/10 02:15:34;;;;;;;1.60;1.13;;;7.80;98.20;;;;;;4993587;28;20493;-88
2023/11/10 02:18:24;;;;;;;1.60;1.20;;;7.80;98.20;;;;;;5000608;28;20480;-89
2023/11/10 02:21:26;;;;;;;1.60;1.30;;;7.80;98.20;;;;;;5002176;28;20491;-88
2023/11/10 02:24:28;;;;;;;1.60;1.10;;;7.80;98.20;;;;;;5020192;28;20459;-89
2023/11/10 02:27:22;;;;;;;1.60;1.20;;;7.80;98.20;;;;;;5004255;28;20538;-87
2023/11/10 02:29:49;;;;;;;1.60;1.20;;;7.80;98.20;;;;;;5016255;28;20892;-87
2023/11/10 02:32:24;;;;;;;1.60;1.20;;;7.80;98.20;;;;;;5000961;28;20567;-86
2023/11/10 02:35:11;;;;;;;1.60;1.20;;;7.80;98.20;;;;;;5017937;28;20547;-88
2023/11/10 02:40:23;;;;;;;1.60;1.20;;;7.80;98.20;;;;;;5017752;28;20480;-86
2023/11/10 02:45:43;;;;;;;1.60;1.30;;;7.80;98.20;;;;;;4962848;28;20468;-87
2023/11/10 02:48:20;;;;;;;1.60;1.20;;;7.80;98.20;;;;;;4982943;28;20490;-86
2023/11/10 02:50:52;;;;;;;1.60;1.30;;;7.90;98.20;;;;;;4942163;28;20514;-87
2023/11/10 02:53:27;;;;;;;1.60;1.20;;;7.90;98.20;;;;;;4971308;28;20505;-90
2023/11/10 02:56:06;;;;;;;3.33;3.13;;;7.90;98.20;;;;;;4960448;28;20462;-86
2023/11/10 02:58:47;;;;;;;1.60;1.20;;;7.90;98.20;;;;;;4973005;28;20560;-87
2023/11/10 03:01:27;;;;;;;1.60;1.30;;;7.90;98.20;;;;;;5002919;28;20501;-86
2023/11/10 03:03:58;;;;;;;1.60;1.30;;;7.90;98.20;;;;;;5020425;28;20460;-86
2023/11/10 03:06:26;;;;;;;1.60;1.20;;;8.00;98.20;;;;;;4996266;28;20480;-86
2023/11/10 03:08:58;;;;;;;1.57;1.10;;;8.00;98.20;;;;;;5002241;28;20999;-88
2023/11/10 03:11:25;;;;;;;1.60;1.20;;;8.00;98.20;;;;;;4977448;28;20524;-89
2023/11/10 03:13:55;;;;;;;1.60;1.20;;;8.10;98.20;;;;;;5002523;23;21504;-79
2023/11/10 03:16:22;;;;;;;1.60;1.40;;;8.10;98.20;;;;;;4986724;28;20475;-79
2023/11/10 03:18:50;;;;;;;1.60;1.27;;;8.10;98.20;;;;;;5020848;28;20470;-80
2023/11/10 03:21:17;;;;;;;1.60;1.23;;;8.10;98.20;;;;;;5000228;28;20505;-79
2023/11/10 03:23:45;;;;;;;1.60;1.30;;;8.10;98.20;;;;;;5009789;28;20947;-78
2023/11/10 03:26:12;;;;;;;1.60;1.27;;;8.10;98.20;;;;;;4998946;28;20510;-79
2023/11/10 03:28:40;;;;;;;1.60;1.30;;;8.10;98.20;;;;;;5008325;28;20477;-79
2023/11/10 03:31:09;;;;;;;1.60;1.33;;;8.10;98.20;;;;;;5001008;28;20477;-79
2023/11/10 03:33:36;;;;;;;1.60;1.20;;;8.00;98.20;;;;;;5006424;28;20484;-79
2023/11/10 03:36:03;;;;;;;1.60;1.27;;;8.10;98.20;;;;;;4998764;28;20487;-79
2023/11/10 03:38:30;;;;;;;1.60;1.17;;;8.00;98.20;;;;;;5010590;28;20460;-79
2023/11/10 03:40:58;;;;;;;1.60;1.23;;;8.00;98.20;;;;;;5000705;28;20468;-79
2023/11/10 03:43:25;;;;;;;1.60;1.30;;;8.00;98.20;;;;;;5006828;28;20555;-79
2023/11/10 03:45:52;;;;;;;1.60;1.20;;;8.00;98.20;;;;;;4999329;28;20484;-79
2023/11/10 03:48:20;;;;;;;1.60;1.20;;;8.00;98.20;;;;;;5009221;28;20483;-78
2023/11/10 03:50:47;;;;;;;1.60;1.20;;;8.10;98.20;;;;;;5007988;28;20472;-79
2023/11/10 03:53:14;;;;;;;1.60;1.20;;;8.10;98.20;;;;;;5002594;28;20515;-79
2023/11/10 03:55:41;;;;;;;1.60;1.20;;;8.10;98.20;;;;;;5010621;28;21254;-80
2023/11/10 03:58:08;;;;;;;1.60;1.20;;;8.10;98.20;;;;;;4998027;28;20491;-79
2023/11/10 04:00:35;;;;;;;1.60;1.30;;;8.10;98.20;;;;;;5012396;28;21077;-80
2023/11/10 04:03:01;;;;;;;1.60;1.20;;;8.20;98.20;;;;;;4996734;28;20526;-79
2023/11/10 04:05:29;;;;;;;1.60;1.20;;;8.20;98.20;;;;;;5012945;28;20480;-79
2023/11/10 04:07:55;;;;;;;1.60;1.20;;;8.20;98.20;;;;;;5018486;28;20475;-81
2023/11/10 04:10:22;;;;;;;1.60;1.30;;;8.20;98.20;;;;;;5017291;28;20479;-81
2023/11/10 04:12:49;;;;;;;1.60;1.23;;;8.20;98.20;;;;;;5001246;28;20429;-80
2023/11/10 04:15:16;;;;;;;1.60;1.20;;;8.30;98.20;;;;;;5015082;28;20514;-80
2023/11/10 04:17:43;;;;;;;1.60;1.20;;;8.30;98.20;;;;;;4999356;28;20921;-81
2023/11/10 04:20:11;;;;;;;1.60;1.20;;;8.30;98.20;;;;;;5013312;28;20472;-80
2023/11/10 04:22:41;;;;;;;1.60;1.30;;;8.30;98.20;;;;;;5000574;28;20659;-80
2023/11/10 04:25:09;;;;;;;1.60;1.20;;;8.30;98.20;;;;;;5010784;28;20807;-80
2023/11/10 04:27:36;;;;;;;1.60;1.43;;;8.30;98.20;;;;;;5002546;28;20562;-79
2023/11/10 04:30:03;;;;;;;1.60;1.20;;;8.30;98.20;;;;;;5008833;28;20492;-80
2023/11/10 04:32:30;;;;;;;1.60;1.17;;;8.30;98.20;;;;;;4997547;28;20499;-79
2023/11/10 04:34:57;;;;;;;1.60;1.30;;;8.30;98.20;;;;;;5012036;28;20903;-80
2023/11/10 04:37:24;;;;;;;1.60;1.20;;;8.30;98.20;;;;;;4998788;28;20483;-80
2023/11/10 04:39:52;;;;;;;1.60;1.30;;;8.30;98.20;;;;;;5007727;28;20471;-80
2023/11/10 04:42:19;;;;;;;1.57;1.20;;;8.30;98.20;;;;;;4992901;28;20628;-79
2023/11/10 04:44:49;;;;;;;1.60;1.20;;;8.30;98.20;;;;;;5009073;28;20535;-78
2023/11/10 04:47:16;;;;;;;1.60;1.20;;;8.40;98.20;;;;;;4998083;28;20472;-79
2023/11/10 04:49:43;;;;;;;1.60;1.20;;;8.40;98.20;;;;;;5008276;28;20725;-79
2023/11/10 04:52:10;;;;;;;1.60;1.20;;;8.40;98.20;;;;;;4995796;28;20578;-80
2023/11/10 04:54:39;;;;;;;1.60;1.17;;;8.40;98.20;;;;;;5006093;28;20554;-80
2023/11/10 04:57:07;;;;;;;1.60;1.40;;;8.40;98.20;;;;;;4995938;28;20480;-79
2023/11/10 04:59:34;;;;;;;1.60;1.30;;;8.40;98.20;;;;;;5005687;28;20460;-79
2023/11/10 05:02:01;;;;;;;1.53;1.10;;;8.40;98.20;;;;;;4997073;28;20486;-79
2023/11/10 05:04:28;;;;;;;1.57;1.20;;;8.40;98.20;;;;;;5003605;28;20484;-79
2023/11/10 05:06:55;;;;;;;1.60;1.20;;;8.40;98.20;;;;;;4989601;28;20511;-79
2023/11/10 05:09:22;;;;;;;1.60;1.20;;;8.40;98.20;;;;;;5010485;28;20479;-79
2023/11/10 05:11:49;;;;;;;1.60;1.30;;;8.40;98.20;;;;;;4999426;28;20911;-79
2023/11/10 05:14:17;;;;;;;1.60;1.30;;;8.50;98.20;;;;;;5005155;28;20491;-79
2023/11/10 05:16:44;;;;;;;1.60;1.30;;;8.50;98.20;;;;;;4997924;28;20549;-79
2023/11/10 05:19:12;;;;;;;1.60;1.20;;;8.50;98.20;;;;;;5004822;28;20695;-79
2023/11/10 05:21:39;;;;;;;1.60;1.20;;;8.50;98.20;;;;;;4991747;28;20994;-80
2023/11/10 05:24:08;;;;;;;1.60;1.23;;;8.40;98.20;;;;;;5002929;28;20576;-79
2023/11/10 05:26:35;;;;;;;1.60;1.30;;;8.50;98.20;;;;;;4998308;28;20485;-79
2023/11/10 05:29:01;;;;;;;1.60;1.20;;;8.50;98.20;;;;;;4996398;28;20512;-80
2023/11/10 05:31:30;;;;;;;1.60;1.30;;;8.50;98.20;;;;;;4991759;28;20724;-80
2023/11/10 05:33:58;;;;;;;1.60;1.20;;;8.50;98.20;;;;;;4990627;28;20891;-80
2023/11/10 05:36:25;;;;;;;1.60;1.20;;;8.50;98.20;;;;;;4983364;28;20577;-80
2023/11/10 05:38:52;;;;;;;1.60;1.20;;;8.50;98.20;;;;;;4999575;28;20480;-80
2023/11/10 05:41:19;;;;;;;1.60;1.20;;;8.50;98.20;;;;;;4983658;28;20471;-80
2023/11/10 05:43:46;;;;;;;1.60;1.10;;;8.50;98.20;;;;;;4998714;28;20469;-80
2023/11/10 05:46:13;;;;;;;1.60;1.20;;;8.50;98.20;;;;;;4980638;28;20483;-80
2023/11/10 05:48:41;;;;;;;1.60;1.10;;;8.50;98.20;;;;;;4997810;28;20492;-80
2023/11/10 05:51:08;;;;;;;1.60;1.20;;;8.50;98.20;;;;;;4982324;28;21005;-80
2023/11/10 05:53:35;;;;;;;1.60;1.33;;;8.60;98.20;;;;;;4999847;28;20467;-79
2023/11/10 05:56:03;;;;;;;1.60;1.20;;;8.60;98.20;;;;;;4981614;28;20500;-80
2023/11/10 05:58:30;;;;;;;1.60;1.20;;;8.60;98.20;;;;;;4995522;28;20465;-79
2023/11/10 06:00:57;;;;;;;1.53;1.13;;;8.60;98.20;;;;;;4978741;28;20537;-80
2023/11/10 06:03:27;;;;;;;1.60;1.30;;;8.60;98.20;;;;;;5020063;28;20567;-80
2023/11/10 06:05:55;;;;;;;1.60;1.30;;;8.60;98.20;;;;;;4986871;28;20557;-79
2023/11/10 06:08:24;;;;;;;1.60;1.20;;;8.60;98.20;;;;;;5021730;28;20493;-80
2023/11/10 06:10:52;;;;;;;1.60;1.20;;;8.60;98.20;;;;;;4988060;28;20461;-80
2023/11/10 06:13:20;;;;;;;1.60;1.20;;;8.60;98.20;;;;;;5029734;28;20979;-79
2023/11/10 06:15:46;;;;;;;1.60;1.20;;;8.60;98.20;;;;;;4996874;28;20546;-80
2023/11/10 06:18:13;;;;;;;1.60;1.40;;;8.60;98.20;;;;;;5025587;28;20605;-79
2023/11/10 06:20:40;;;;;;;1.60;1.10;;;8.70;98.20;;;;;;4992753;28;20917;-81
2023/11/10 06:23:08;;;;;;;1.60;1.10;;;8.70;98.20;;;;;;5016903;28;20482;-78
2023/11/10 06:25:35;;;;;;;1.60;1.30;;;8.70;98.20;;;;;;5008897;28;20487;-78
2023/11/10 06:28:02;;;;;;;1.60;1.10;;;8.70;98.20;;;;;;5010577;28;20551;-78
2023/11/10 06:30:29;;;;;;;1.60;1.20;;;8.70;98.20;;;;;;5008214;28;20472;-79
2023/11/10 06:32:55;;;;;;;1.60;1.20;;;8.70;98.20;;;;;;5015505;28;20475;-79
2023/11/10 06:35:22;;;;;;;1.60;1.10;;;8.70;98.20;;;;;;4996644;28;20495;-79
2023/11/10 06:37:49;;;;;;;1.60;1.37;;;8.70;98.20;;;;;;5010208;28;20539;-79
2023/11/10 06:40:17;;;;;;;1.60;1.13;;;8.70;98.20;;;;;;4993803;28;20469;-81
2023/11/10 06:42:44;;;;;;;1.60;1.20;;;8.70;98.20;;;;;;5015497;28;21208;-80
2023/11/10 06:45:11;;;;;;;1.60;1.20;;;8.70;98.20;;;;;;4994584;28;20568;-81
2023/11/10 06:47:38;;;;;;;1.60;1.20;;;8.70;98.20;;;;;;5015623;28;20563;-80
2023/11/10 06:50:07;;;;;;;1.60;1.20;;;8.70;98.20;;;;;;4994200;28;20523;-80
2023/11/10 06:52:34;;;;;;;1.60;1.20;;;8.80;98.20;;;;;;5010380;28;20483;-81
2023/11/10 06:55:01;;;;;;;1.60;1.17;;;8.80;98.20;;;;;;5015019;28;20492;-81
2023/11/10 06:57:30;;;;;;;1.60;1.10;;;8.80;98.20;;;;;;5012453;28;20505;-80
2023/11/10 06:59:57;;;;;;;1.60;1.10;;;8.70;98.20;;;;;;5011490;28;20471;-80
2023/11/10 07:02:24;;;;;;;1.60;1.10;;;8.80;98.20;;;;;;5016344;28;20904;-81
2023/11/10 07:04:51;;;;;;;1.60;1.10;;;8.80;98.20;;;;;;5018448;28;20924;-82
2023/11/10 07:07:18;;;;;;;1.60;1.30;;;8.80;98.20;;;;;;5011343;28;20874;-79
2023/11/10 07:09:45;;;;;;;1.60;1.20;;;8.80;98.20;;;;;;5014408;28;20471;-80
2023/11/10 07:12:12;;;;;;;1.60;1.10;;;8.80;98.20;;;;;;5015732;28;20626;-79
2023/11/10 07:14:40;;;;;;;1.60;1.20;;;8.80;98.20;;;;;;5013410;28;20579;-79
2023/11/10 07:17:08;;;;;;;1.60;1.20;;;8.80;98.20;;;;;;5015342;28;20577;-78
2023/11/10 07:19:34;;;;;;;1.60;1.20;;;8.80;98.20;;;;;;5017342;28;20533;-78
2023/11/10 07:22:01;;;;;;;1.60;1.20;;;8.80;98.20;;;;;;5008609;28;20478;-79
2023/11/10 07:24:28;;;;;;;1.60;1.20;;;8.80;98.20;;;;;;5013752;28;20485;-79
2023/11/10 07:26:55;;;;;;;1.60;1.20;;;8.80;98.20;;;;;;4990081;28;20477;-77
2023/11/10 07:29:22;;;;;;;1.60;1.10;;;8.80;98.20;;;;;;4993131;28;21056;-78
2023/11/10 07:31:51;;;;;;;1.60;1.20;;;8.80;98.20;;;;;;4991319;28;21010;-78
2023/11/10 07:34:18;;;;;;;1.60;1.10;;;8.80;98.20;;;;;;5014943;28;20515;-78
2023/11/10 07:36:45;;;;;;;1.60;1.20;;;8.80;98.20;;;;;;4997434;28;20499;-77
2023/11/10 07:39:12;;;;;;;1.60;1.20;;;8.90;98.20;;;;;;5008750;28;20470;-79
2023/11/10 07:41:39;;;;;;;1.60;1.23;;;8.90;98.20;;;;;;4990448;28;20475;-79
2023/11/10 07:44:07;;;;;;;1.60;1.20;;;8.90;98.20;;;;;;4999360;28;20494;-80
2023/11/10 07:46:34;;;;;;;1.60;1.20;;;9.00;98.20;;;;;;5006086;28;20470;-80
2023/11/10 07:49:02;;;;;;;1.60;1.10;;;9.00;98.20;;;;;;5008653;28;20495;-79
2023/11/10 07:51:29;;;;;;;1.60;1.10;;;9.00;98.20;;;;;;4985551;28;20548;-79
2023/11/10 07:53:56;;;;;;;1.60;1.10;;;9.00;98.20;;;;;;5008943;28;20725;-79
2023/11/10 07:56:23;;;;;;;1.60;1.20;;;9.00;98.20;;;;;;4990751;28;20493;-80
2023/11/10 07:58:49;;;;;;;1.60;1.20;;;9.10;98.20;;;;;;5008796;28;20490;-80
2023/11/10 08:01:18;;;;;;;1.60;1.20;;;9.10;98.20;;;;;;4989764;28;20490;-81
2023/11/10 08:03:45;;;;;;;1.60;1.10;;;9.20;98.20;;;;;;4990889;28;20473;-80
2023/11/10 08:06:13;;;;;;;1.60;1.30;;;9.30;98.20;;;;;;4983702;28;20483;-80
2023/11/10 08:08:41;;;;;;;1.60;1.20;;;9.40;98.20;;;;;;5002277;28;20493;-80
2023/11/10 08:11:11;;;;;;;1.60;1.23;;;9.50;98.20;;;;;;4978961;28;20478;-80
2023/11/10 08:13:38;;;;;;;1.60;1.10;;;9.50;98.20;;;;;;4994630;28;20524;-80
2023/11/10 08:16:06;;;;;;;1.60;1.10;;;9.50;98.20;;;;;;4973394;28;20476;-79
2023/11/10 08:18:33;;;;;;;1.60;1.20;;;9.60;98.20;;;;;;4992249;28;20541;-81
2023/11/10 08:21:00;;;;;;;1.60;1.20;;;9.70;98.20;;;;;;4973023;28;20507;-80
2023/11/10 08:23:28;;;;;;;1.60;1.10;;;9.80;98.20;;;;;;4982264;28;20527;-81
2023/11/10 08:25:55;;;;;;;1.60;1.10;;;9.80;98.20;;;;;;4978585;28;20539;-80
2023/11/10 08:28:22;;;;;;;1.60;1.10;;;9.80;98.20;;;;;;5002302;28;20524;-81
2023/11/10 08:30:50;;;;;;;1.60;1.00;;;9.80;98.20;;;;;;4974139;28;20568;-81
2023/11/10 08:33:17;;;;;;;1.60;1.20;;;9.70;98.20;;;;;;5004429;28;20465;-80
2023/11/10 08:35:44;;;;;;;1.60;1.10;;;9.70;98.20;;;;;;4990293;28;20505;-80
2023/11/10 08:38:11;;;;;;;1.60;1.27;;;9.70;98.20;;;;;;4994734;28;20477;-81
2023/11/10 08:40:40;;;;;;;1.60;1.10;;;9.70;98.20;;;;;;4986330;28;20538;-80
2023/11/10 08:43:07;;;;;;;1.60;1.10;;;9.70;98.20;;;;;;4979318;28;21107;-81
2023/11/10 08:45:34;;;;;;;1.60;1.17;;;9.80;98.20;;;;;;4986835;28;20477;-81
2023/11/10 08:48:00;;;;;;;1.60;1.10;;;9.80;98.20;;;;;;4999883;28;21117;-79
2023/11/10 08:50:27;;;;;;;1.60;1.20;;;9.80;98.20;;;;;;4994215;28;20468;-80
2023/11/10 08:52:54;;;;;;;1.60;1.13;;;9.90;98.20;;;;;;4995764;28;20486;-80
2023/11/10 08:55:22;;;;;;;1.60;1.10;;;10.00;98.20;;;;;;4982566;28;20494;-80
2023/11/10 08:57:51;;;;;;;1.60;1.10;;;10.00;98.20;;;;;;4992440;28;20472;-80
2023/11/10 09:00:18;;;;;;;1.60;1.13;;;10.10;98.20;;;;;;4987151;28;20473;-79
2023/11/10 09:02:45;;;;;;;1.60;1.10;;;10.20;98.20;;;;;;4989810;28;20477;-78
2023/11/10 09:05:13;;;;;;;1.60;1.20;;;10.30;98.20;;;;;;4987166;28;20991;-79
2023/11/10 09:07:42;;;;;;;1.60;1.10;;;10.40;98.20;;;;;;4988667;28;20568;-79
2023/11/10 09:10:11;;;;;;;1.60;1.10;;;10.50;98.20;;;;;;4991510;28;20498;-78
2023/11/10 09:12:41;;;;;;;1.60;1.20;;;10.60;98.20;;;;;;4994484;28;20546;-79
2023/11/10 09:15:11;;;;;;;1.60;1.10;;;10.60;98.20;;;;;;4991391;28;20495;-79
2023/11/10 09:17:38;;;;;;;1.60;1.20;;;10.70;98.20;;;;;;4997415;28;20547;-79
2023/11/10 09:20:07;;;;;;;1.60;1.20;;;10.70;98.20;;;;;;4990432;28;20468;-80
2023/11/10 09:22:35;;;;;;;1.57;1.10;;;10.70;98.20;;;;;;4991714;28;20491;-79
2023/11/10 09:25:04;;;;;;;1.60;1.10;;;10.80;98.20;;;;;;4991307;28;20508;-80
2023/11/10 09:27:31;;;;;;;1.60;1.10;;;10.80;98.20;;;;;;4992403;28;20935;-79
2023/11/10 09:29:58;;;;;;;1.60;1.10;;;10.90;98.20;;;;;;4993466;28;20558;-79
2023/11/10 09:32:26;;;;;;;1.60;1.10;;;10.90;98.20;;;;;;4996070;28;20506;-79
2023/11/10 09:34:53;;;;;;;1.53;1.00;;;11.00;98.20;;;;;;4993901;28;20584;-79
2023/11/10 09:37:20;;;;;;;1.60;1.10;;;11.00;98.20;;;;;;4994699;28;20483;-79
2023/11/10 09:39:48;;;;;;;1.57;1.00;;;11.10;98.20;;;;;;4993361;28;20464;-80
2023/11/10 09:42:16;;;;;;;1.60;1.10;;;11.20;98.20;;;;;;4992332;28;20910;-80
2023/11/10 09:44:52;;;;;;;1.57;1.00;;;11.30;98.20;;;;;;4996234;28;20575;-78
2023/11/10 09:47:21;;;;;;;1.60;1.10;;;11.40;98.20;;;;;;4991085;28;20530;-79
2023/11/10 09:49:50;;;;;;;1.57;1.00;;;11.40;98.20;;;;;;4994101;28;20520;-79
2023/11/10 09:52:19;;;;;;;1.60;1.20;;;11.30;98.20;;;;;;4993593;28;20472;-79
2023/11/10 09:54:49;;;;;;;1.60;1.10;;;11.30;98.20;;;;;;4993819;28;20571;-79
2023/11/10 09:57:18;;;;;;;1.60;1.10;;;11.20;98.20;;;;;;4988341;28;20560;-78
2023/11/10 09:59:45;;;;;;;1.60;1.00;;;11.20;98.20;;;;;;4994712;28;20544;-80
2023/11/10 10:02:14;;;;;;;1.60;1.10;;;11.20;98.20;;;;;;4986944;28;20480;-79
2023/11/10 10:04:42;;;;;;;1.57;1.00;;;11.30;98.20;;;;;;4995783;28;20481;-79
2023/11/10 10:07:12;;;;;;;1.60;1.10;;;11.30;98.20;;;;;;4982491;28;20551;-79
2023/11/10 10:09:39;;;;;;;1.53;1.00;;;11.30;98.20;;;;;;5001399;28;20489;-78
2023/11/10 10:12:08;;;;;;;1.53;1.00;;;11.20;98.20;;;;;;4995837;28;21061;-80
2023/11/10 10:14:34;;;;;;;1.60;1.10;;;11.30;98.20;;;;;;5003966;28;20492;-77
2023/11/10 10:17:03;;;;;;;1.57;1.00;;;11.30;98.20;;;;;;4996698;28;20951;-79
2023/11/10 10:19:30;;;;;;;1.60;1.03;;;11.30;98.20;;;;;;5002396;28;20463;-79
2023/11/10 10:21:59;;;;;;;1.60;1.10;;;11.30;98.20;;;;;;4995778;28;20472;-78
2023/11/10 10:24:27;;;;;;;1.60;1.10;;;11.30;98.20;;;;;;5005285;28;20764;-77
2023/11/10 10:26:55;;;;;;;1.60;1.00;;;11.30;98.20;;;;;;4998205;28;20484;-78
2023/11/10 10:29:23;;;;;;;1.60;1.00;;;11.40;98.20;;;;;;5002756;28;21104;-78
2023/11/10 10:31:50;;;;;;;1.57;1.10;;;11.40;98.20;;;;;;4999430;28;20503;-79
2023/11/10 10:34:17;;;;;;;1.60;1.00;;;11.40;98.20;;;;;;5002226;28;20515;-79
2023/11/10 10:36:44;;;;;;;1.60;1.10;;;11.40;98.20;;;;;;4997280;28;20494;-79
2023/11/10 10:39:17;;;;;;;1.60;1.13;;;11.40;98.20;;;;;;5004318;28;20892;-78
2023/11/10 10:41:46;;;;;;;1.60;1.10;;;11.40;98.20;;;;;;4996203;28;20502;-78
2023/11/10 10:44:14;;;;;;;1.60;1.10;;;11.40;98.20;;;;;;5001701;28;20508;-79
2023/11/10 10:46:42;;;;;;;1.60;1.10;;;11.40;98.20;;;;;;4994671;28;20485;-78
2023/11/10 10:49:12;;;;;;;1.53;1.10;;;11.40;98.20;;;;;;5000000;28;20675;-78
2023/11/10 10:51:39;;;;;;;1.60;1.10;;;11.40;98.20;;;;;;4996195;28;20484;-78
2023/11/10 10:54:07;;;;;;;1.60;1.13;;;11.40;98.20;;;;;;5001291;28;20487;-79
2023/11/10 10:56:35;;;;;;;1.57;1.00;;;11.40;98.20;;;;;;4992458;28;20558;-79
2023/11/10 10:59:04;;;;;;;1.60;1.20;;;11.40;98.20;;;;;;5002464;28;20474;-77
2023/11/10 11:01:31;;;;;;;1.60;1.10;;;11.30;98.20;;;;;;4989484;28;20560;-79
2023/11/10 11:04:15;;;;;;;1.60;1.00;;;11.30;98.20;;;;;;5005676;28;20520;-79
2023/11/10 11:06:54;;;;;;;1.57;1.00;;;11.20;98.20;;;;;;4996934;28;20584;-81
2023/11/10 11:09:50;;;;;;;1.60;1.10;;;11.10;98.20;;;;;;5005532;28;21046;-78
2023/11/10 11:12:58;;;;;;;1.60;1.10;;;11.10;98.20;;;;;;4995175;28;20477;-79
2023/11/10 11:15:39;;;;;;;1.60;1.10;;;11.00;98.20;;;;;;5002324;28;20495;-80
2023/11/10 11:18:26;;;;;;;1.60;1.20;;;11.00;98.20;;;;;;5004793;28;20600;-78
2023/11/10 11:20:54;;;;;;;1.53;1.10;;;10.90;98.20;;;;;;4993406;28;20456;-78
2023/11/10 11:23:23;;;;;;;1.60;1.20;;;10.90;98.20;;;;;;4998547;28;20494;-80
2023/11/10 11:26:01;;;;;;;1.53;1.03;;;10.90;98.20;;;;;;4995189;28;21034;-80
2023/11/10 11:28:36;;;;;;;1.60;1.10;;;10.80;98.20;;;;;;5007841;28;20482;-79
2023/11/10 11:31:10;;;;;;;1.60;1.10;;;10.80;98.20;;;;;;5006906;28;20495;-79
2023/11/10 11:33:45;;;;;;;1.60;1.10;;;10.80;98.20;;;;;;4998408;28;20482;-79
2023/11/10 11:36:15;;;;;;;1.60;1.20;;;10.80;98.20;;;;;;4993222;28;20489;-80
2023/11/10 11:38:42;;;;;;;1.57;1.10;;;10.70;98.20;;;;;;4990397;28;20476;-80
2023/11/10 11:41:10;;;;;;;1.57;1.10;;;10.80;98.20;;;;;;4971938;28;20480;-80
2023/11/10 11:43:49;;;;;;;1.60;1.10;;;10.70;98.20;;;;;;4979381;28;20678;-80
2023/11/10 11:46:17;;;;;;;1.57;1.10;;;10.70;98.20;;;;;;4976823;28;20485;-81
2023/11/10 11:48:44;;;;;;;1.53;1.10;;;10.70;98.20;;;;;;4998114;28;20840;-81
2023/11/10 11:51:11;;;;;;;1.57;1.07;;;10.70;98.20;;;;;;4981407;28;20517;-81
2023/11/10 11:53:38;;;;;;;1.57;1.10;;;10.60;98.20;;;;;;4996257;28;20751;-83
2023/11/10 11:56:07;;;;;;;1.60;1.10;;;10.60;98.20;;;;;;4982584;28;20475;-82
2023/11/10 11:58:37;;;;;;;1.60;1.10;;;10.50;98.20;;;;;;4997132;28;20465;-81
2023/11/10 12:01:04;;;;;;;1.60;1.10;;;10.50;98.20;;;;;;4981461;28;20504;-81
2023/11/10 12:03:33;;;;;;;1.60;1.20;;;10.50;98.20;;;;;;4999436;28;20584;-82
2023/11/10 12:06:00;;;;;;;1.60;1.20;;;10.50;98.20;;;;;;4985141;28;20741;-83
2023/11/10 12:08:27;;;;;;;1.60;1.10;;;10.50;98.20;;;;;;5025255;28;20856;-84
2023/11/10 12:10:54;;;;;;;1.60;1.10;;;10.40;98.20;;;;;;4998390;28;21109;-81
2023/11/10 12:13:22;;;;;;;1.60;1.27;;;10.40;98.20;;;;;;4990983;28;20585;-82
2023/11/10 12:15:49;;;;;;;1.57;1.10;;;10.30;98.20;;;;;;4976491;28;20830;-82
2023/11/10 12:18:17;;;;;;;1.57;1.10;;;10.30;98.20;;;;;;4974193;28;20925;-81
2023/11/10 12:20:45;;;;;;;1.60;1.10;;;10.20;98.20;;;;;;4988342;28;20532;-82
2023/11/10 12:23:14;;;;;;;1.60;1.10;;;10.20;98.20;;;;;;4978422;28;20477;-81
2023/11/10 12:25:42;;;;;;;1.60;1.20;;;10.10;98.20;;;;;;4984899;28;20572;-81
2023/11/10 12:28:13;;;;;;;1.60;1.10;;;10.10;98.20;;;;;;4981608;28;20485;-80
2023/11/10 12:30:40;;;;;;;1.57;1.10;;;10.10;98.20;;;;;;4985196;28;20847;-81
2023/11/10 12:33:09;;;;;;;1.60;1.10;;;10.10;98.20;;;;;;5003687;28;20518;-80
2023/11/10 12:35:39;;;;;;;1.60;1.10;;;10.10;98.20;;;;;;5004254;28;20495;-80
2023/11/10 12:38:08;;;;;;;1.60;1.23;;;10.10;98.20;;;;;;5009414;28;20922;-81
2023/11/10 12:40:37;;;;;;;1.60;1.10;;;10.10;98.20;;;;;;5011173;28;20467;-80
2023/11/10 12:43:04;;;;;;;1.60;1.20;;;10.10;98.20;;;;;;4989508;28;21018;-78
2023/11/10 12:45:30;;;;;;;1.60;1.20;;;10.10;98.20;;;;;;5007870;28;20509;-80
2023/11/10 12:47:59;;;;;;;1.57;1.10;;;10.10;98.20;;;;;;4981118;28;20552;-80
2023/11/10 12:50:30;;;;;;;1.60;1.10;;;10.10;98.20;;;;;;4986437;28;20562;-80
2023/11/10 12:52:58;;;;;;;1.60;1.10;;;10.20;98.20;;;;;;4986508;28;20668;-83
2023/11/10 12:55:27;;;;;;;1.60;1.10;;;10.20;98.20;;;;;;5011992;28;21472;-82
2023/11/10 12:57:54;;;;;;;1.60;1.30;;;10.20;98.20;;;;;;5009708;28;20483;-83
2023/11/10 13:00:21;;;;;;;1.60;1.10;;;10.20;98.20;;;;;;5010535;28;20583;-83
2023/11/10 13:02:48;;;;;;;1.53;1.10;;;10.20;98.20;;;;;;5018334;28;20479;-81
2023/11/10 13:05:17;;;;;;;1.57;1.10;;;10.20;98.20;;;;;;5014516;28;20488;-81
2023/11/10 13:07:44;;;;;;;1.57;1.10;;;10.30;98.20;;;;;;5019732;28;20478;-81
2023/11/10 13:10:11;;;;;;;1.60;1.03;;;10.30;98.20;;;;;;5016258;28;20579;-81
2023/11/10 13:12:40;;;;;;;1.57;1.10;;;10.30;98.20;;;;;;5016695;28;21015;-82
2023/11/10 13:15:08;;;;;;;1.57;1.10;;;10.20;98.20;;;;;;5010005;28;20487;-81
2023/11/10 13:17:36;;;;;;;1.57;1.10;;;10.20;98.20;;;;;;5014197;28;20552;-83
2023/11/10 13:20:05;;;;;;;1.60;1.17;;;10.20;98.20;;;;;;5010016;28;20491;-82
2023/11/10 13:22:32;;;;;;;1.53;1.03;;;10.10;98.20;;;;;;5009549;28;20529;-81